sensor_id;sensor_type;location;lat;lon;timestamp;P1;durP1;ratioP1;P2;durP2;ratioP2
40198;SDS011;25906;43.536;26.068;2022-09-27T00:00:31;5.57;;;4.10;;
40198;SDS011;25906;43.536;26.068;2022-09-27T00:09:02;5.63;;;4.32;;
40198;SDS011;25906;43.536;26.068;2022-09-27T00:11:48;7.18;;;4.28;;
40198;SDS011;25906;43.536;26.068;2022-09-27T00:14:34;5.90;;;3.83;;
40198;SDS011;25906;43.536;26.068;2022-09-27T00:17:20;6.53;;;4.88;;
40198;SDS011;25906;43.536;26.068;2022-09-27T00:20:06;6.97;;;4.13;;
40198;SDS011;25906;43.536;26.068;2022-09-27T00:22:52;6.38;;;4.28;;
40198;SDS011;25906;43.536;26.068;2022-09-27T00:25:37;5.57;;;4.35;;
40198;SDS011;25906;43.536;26.068;2022-09-27T00:28:23;5.88;;;4.68;;
40198;SDS011;25906;43.536;26.068;2022-09-27T00:31:28;7.22;;;4.40;;
40198;SDS011;25906;43.536;26.068;2022-09-27T00:34:18;5.22;;;4.53;;
40198;SDS011;25906;43.536;26.068;2022-09-27T00:37:06;5.55;;;4.55;;
40198;SDS011;25906;43.536;26.068;2022-09-27T00:39:52;6.40;;;4.38;;
40198;SDS011;25906;43.536;26.068;2022-09-27T00:42:38;5.18;;;4.32;;
40198;SDS011;25906;43.536;26.068;2022-09-27T00:45:23;8.77;;;4.20;;
40198;SDS011;25906;43.536;26.068;2022-09-27T00:48:09;6.15;;;4.13;;
40198;SDS011;25906;43.536;26.068;2022-09-27T00:51:00;9.60;;;4.30;;
40198;SDS011;25906;43.536;26.068;2022-09-27T00:53:49;7.05;;;4.30;;
40198;SDS011;25906;43.536;26.068;2022-09-27T00:56:37;9.77;;;4.55;;
40198;SDS011;25906;43.536;26.068;2022-09-27T00:59:33;8.13;;;4.40;;
40198;SDS011;25906;43.536;26.068;2022-09-27T01:02:22;6.85;;;4.60;;
40198;SDS011;25906;43.536;26.068;2022-09-27T01:05:08;5.00;;;4.05;;
40198;SDS011;25906;43.536;26.068;2022-09-27T01:07:56;6.10;;;4.47;;
40198;SDS011;25906;43.536;26.068;2022-09-27T01:10:53;6.57;;;4.57;;
40198;SDS011;25906;43.536;26.068;2022-09-27T01:19:54;5.32;;;3.75;;
40198;SDS011;25906;43.536;26.068;2022-09-27T01:28:46;4.70;;;4.00;;
40198;SDS011;25906;43.536;26.068;2022-09-27T01:32:01;6.50;;;4.10;;
40198;SDS011;25906;43.536;26.068;2022-09-27T01:41:15;5.88;;;4.35;;
40198;SDS011;25906;43.536;26.068;2022-09-27T01:47:14;5.68;;;4.43;;
40198;SDS011;25906;43.536;26.068;2022-09-27T02:01:44;8.13;;;4.75;;
40198;SDS011;25906;43.536;26.068;2022-09-27T02:04:32;5.50;;;4.45;;
40198;SDS011;25906;43.536;26.068;2022-09-27T02:07:23;8.77;;;4.47;;
40198;SDS011;25906;43.536;26.068;2022-09-27T02:10:18;7.80;;;4.70;;
40198;SDS011;25906;43.536;26.068;2022-09-27T02:13:14;7.68;;;4.80;;
40198;SDS011;25906;43.536;26.068;2022-09-27T02:19:31;5.22;;;4.20;;
40198;SDS011;25906;43.536;26.068;2022-09-27T02:25:09;7.50;;;5.00;;
40198;SDS011;25906;43.536;26.068;2022-09-27T02:30:54;7.00;;;4.90;;
40198;SDS011;25906;43.536;26.068;2022-09-27T02:33:47;9.65;;;4.78;;
40198;SDS011;25906;43.536;26.068;2022-09-27T02:36:36;5.60;;;4.30;;
40198;SDS011;25906;43.536;26.068;2022-09-27T02:39:23;4.28;;;3.80;;
40198;SDS011;25906;43.536;26.068;2022-09-27T02:42:08;5.72;;;4.45;;
40198;SDS011;25906;43.536;26.068;2022-09-27T02:44:54;6.57;;;4.57;;
40198;SDS011;25906;43.536;26.068;2022-09-27T02:57:15;6.47;;;4.70;;
40198;SDS011;25906;43.536;26.068;2022-09-27T03:03:32;7.18;;;4.97;;
40198;SDS011;25906;43.536;26.068;2022-09-27T03:06:21;7.05;;;5.25;;
40198;SDS011;25906;43.536;26.068;2022-09-27T03:09:17;6.60;;;4.82;;
40198;SDS011;25906;43.536;26.068;2022-09-27T03:12:04;6.90;;;5.20;;
40198;SDS011;25906;43.536;26.068;2022-09-27T03:14:49;7.05;;;5.00;;
40198;SDS011;25906;43.536;26.068;2022-09-27T03:17:35;8.38;;;4.90;;
40198;SDS011;25906;43.536;26.068;2022-09-27T03:20:20;5.82;;;4.72;;
40198;SDS011;25906;43.536;26.068;2022-09-27T03:23:06;7.32;;;4.78;;
40198;SDS011;25906;43.536;26.068;2022-09-27T03:25:51;8.23;;;5.10;;
40198;SDS011;25906;43.536;26.068;2022-09-27T03:28:37;5.95;;;4.75;;
40198;SDS011;25906;43.536;26.068;2022-09-27T03:31:23;6.43;;;4.78;;
40198;SDS011;25906;43.536;26.068;2022-09-27T03:34:08;8.52;;;4.75;;
40198;SDS011;25906;43.536;26.068;2022-09-27T03:36:54;6.75;;;4.78;;
40198;SDS011;25906;43.536;26.068;2022-09-27T03:39:40;7.50;;;5.40;;
40198;SDS011;25906;43.536;26.068;2022-09-27T03:42:25;6.43;;;5.22;;
40198;SDS011;25906;43.536;26.068;2022-09-27T03:45:10;6.15;;;5.18;;
40198;SDS011;25906;43.536;26.068;2022-09-27T03:47:57;7.15;;;5.25;;
40198;SDS011;25906;43.536;26.068;2022-09-27T03:50:43;6.05;;;4.72;;
40198;SDS011;25906;43.536;26.068;2022-09-27T03:53:28;7.55;;;5.13;;
40198;SDS011;25906;43.536;26.068;2022-09-27T03:56:14;5.80;;;4.53;;
40198;SDS011;25906;43.536;26.068;2022-09-27T03:58:59;5.82;;;4.70;;
40198;SDS011;25906;43.536;26.068;2022-09-27T04:01:45;6.32;;;5.18;;
40198;SDS011;25906;43.536;26.068;2022-09-27T04:04:30;7.05;;;5.43;;
40198;SDS011;25906;43.536;26.068;2022-09-27T04:07:16;6.60;;;5.32;;
40198;SDS011;25906;43.536;26.068;2022-09-27T04:10:02;6.22;;;4.97;;
40198;SDS011;25906;43.536;26.068;2022-09-27T04:12:48;5.78;;;4.75;;
40198;SDS011;25906;43.536;26.068;2022-09-27T04:15:34;12.20;;;5.40;;
40198;SDS011;25906;43.536;26.068;2022-09-27T04:18:19;6.00;;;4.45;;
40198;SDS011;25906;43.536;26.068;2022-09-27T04:21:05;7.43;;;4.88;;
40198;SDS011;25906;43.536;26.068;2022-09-27T04:23:51;8.02;;;5.22;;
40198;SDS011;25906;43.536;26.068;2022-09-27T04:26:36;7.38;;;4.80;;
40198;SDS011;25906;43.536;26.068;2022-09-27T04:29:23;6.63;;;4.95;;
40198;SDS011;25906;43.536;26.068;2022-09-27T04:32:10;8.30;;;5.00;;
40198;SDS011;25906;43.536;26.068;2022-09-27T04:34:58;7.25;;;5.03;;
40198;SDS011;25906;43.536;26.068;2022-09-27T04:38:02;8.40;;;5.50;;
40198;SDS011;25906;43.536;26.068;2022-09-27T04:40:47;10.35;;;4.82;;
40198;SDS011;25906;43.536;26.068;2022-09-27T04:43:34;8.15;;;5.53;;
40198;SDS011;25906;43.536;26.068;2022-09-27T04:46:20;8.00;;;6.00;;
40198;SDS011;25906;43.536;26.068;2022-09-27T04:49:06;8.40;;;6.05;;
40198;SDS011;25906;43.536;26.068;2022-09-27T04:51:52;7.55;;;5.47;;
40198;SDS011;25906;43.536;26.068;2022-09-27T04:54:37;8.70;;;5.50;;
40198;SDS011;25906;43.536;26.068;2022-09-27T04:57:23;8.07;;;5.57;;
40198;SDS011;25906;43.536;26.068;2022-09-27T05:00:08;6.75;;;5.47;;
40198;SDS011;25906;43.536;26.068;2022-09-27T05:05:39;11.00;;;5.53;;
40198;SDS011;25906;43.536;26.068;2022-09-27T05:08:26;8.45;;;5.82;;
40198;SDS011;25906;43.536;26.068;2022-09-27T05:11:11;7.90;;;5.93;;
40198;SDS011;25906;43.536;26.068;2022-09-27T05:13:57;8.43;;;6.70;;
40198;SDS011;25906;43.536;26.068;2022-09-27T05:16:42;8.55;;;6.18;;
40198;SDS011;25906;43.536;26.068;2022-09-27T05:19:28;9.75;;;6.45;;
40198;SDS011;25906;43.536;26.068;2022-09-27T05:22:14;8.82;;;6.32;;
40198;SDS011;25906;43.536;26.068;2022-09-27T05:24:59;11.43;;;7.05;;
40198;SDS011;25906;43.536;26.068;2022-09-27T05:27:45;12.60;;;6.45;;
40198;SDS011;25906;43.536;26.068;2022-09-27T05:30:31;8.00;;;5.97;;
40198;SDS011;25906;43.536;26.068;2022-09-27T05:33:16;11.55;;;7.05;;
40198;SDS011;25906;43.536;26.068;2022-09-27T05:36:03;9.23;;;6.47;;
40198;SDS011;25906;43.536;26.068;2022-09-27T05:38:48;8.80;;;6.05;;
40198;SDS011;25906;43.536;26.068;2022-09-27T05:41:34;10.27;;;7.15;;
40198;SDS011;25906;43.536;26.068;2022-09-27T05:44:19;8.80;;;5.93;;
40198;SDS011;25906;43.536;26.068;2022-09-27T05:47:05;9.45;;;6.53;;
40198;SDS011;25906;43.536;26.068;2022-09-27T05:49:50;7.43;;;5.85;;
40198;SDS011;25906;43.536;26.068;2022-09-27T05:52:35;11.95;;;6.93;;
40198;SDS011;25906;43.536;26.068;2022-09-27T05:55:21;10.55;;;7.28;;
40198;SDS011;25906;43.536;26.068;2022-09-27T05:58:07;12.30;;;7.38;;
40198;SDS011;25906;43.536;26.068;2022-09-27T06:00:54;9.20;;;7.28;;
40198;SDS011;25906;43.536;26.068;2022-09-27T06:03:40;12.38;;;7.15;;
40198;SDS011;25906;43.536;26.068;2022-09-27T06:06:25;9.88;;;6.57;;
40198;SDS011;25906;43.536;26.068;2022-09-27T06:09:11;10.55;;;6.90;;
40198;SDS011;25906;43.536;26.068;2022-09-27T06:11:57;13.20;;;7.28;;
40198;SDS011;25906;43.536;26.068;2022-09-27T06:14:43;11.82;;;7.57;;
40198;SDS011;25906;43.536;26.068;2022-09-27T06:17:28;16.35;;;7.25;;
40198;SDS011;25906;43.536;26.068;2022-09-27T06:20:14;10.75;;;7.18;;
40198;SDS011;25906;43.536;26.068;2022-09-27T06:23:05;10.48;;;7.25;;
40198;SDS011;25906;43.536;26.068;2022-09-27T06:25:55;9.90;;;6.68;;
40198;SDS011;25906;43.536;26.068;2022-09-27T06:28:44;10.77;;;6.55;;
40198;SDS011;25906;43.536;26.068;2022-09-27T06:31:31;9.55;;;7.30;;
40198;SDS011;25906;43.536;26.068;2022-09-27T06:34:16;12.98;;;7.25;;
40198;SDS011;25906;43.536;26.068;2022-09-27T06:37:02;11.05;;;7.00;;
40198;SDS011;25906;43.536;26.068;2022-09-27T06:39:47;13.52;;;6.82;;
40198;SDS011;25906;43.536;26.068;2022-09-27T06:42:33;10.00;;;6.82;;
40198;SDS011;25906;43.536;26.068;2022-09-27T06:45:18;14.23;;;6.95;;
40198;SDS011;25906;43.536;26.068;2022-09-27T06:48:05;7.95;;;5.97;;
40198;SDS011;25906;43.536;26.068;2022-09-27T06:50:51;12.55;;;6.47;;
40198;SDS011;25906;43.536;26.068;2022-09-27T06:53:39;9.55;;;6.78;;
40198;SDS011;25906;43.536;26.068;2022-09-27T06:56:25;11.70;;;7.50;;
40198;SDS011;25906;43.536;26.068;2022-09-27T06:59:10;8.70;;;6.32;;
40198;SDS011;25906;43.536;26.068;2022-09-27T07:02:14;9.83;;;6.07;;
40198;SDS011;25906;43.536;26.068;2022-09-27T07:05:00;10.02;;;6.32;;
40198;SDS011;25906;43.536;26.068;2022-09-27T07:07:47;9.90;;;5.85;;
40198;SDS011;25906;43.536;26.068;2022-09-27T07:10:33;8.32;;;5.78;;
40198;SDS011;25906;43.536;26.068;2022-09-27T07:13:21;8.75;;;5.82;;
40198;SDS011;25906;43.536;26.068;2022-09-27T07:16:07;10.25;;;5.90;;
40198;SDS011;25906;43.536;26.068;2022-09-27T07:18:55;8.77;;;5.15;;
40198;SDS011;25906;43.536;26.068;2022-09-27T07:21:40;9.32;;;6.25;;
40198;SDS011;25906;43.536;26.068;2022-09-27T07:24:26;7.35;;;5.43;;
40198;SDS011;25906;43.536;26.068;2022-09-27T07:27:11;8.32;;;5.72;;
40198;SDS011;25906;43.536;26.068;2022-09-27T07:29:57;8.55;;;5.63;;
40198;SDS011;25906;43.536;26.068;2022-09-27T07:32:42;9.13;;;6.68;;
40198;SDS011;25906;43.536;26.068;2022-09-27T07:35:28;12.63;;;5.85;;
40198;SDS011;25906;43.536;26.068;2022-09-27T07:38:13;7.65;;;5.25;;
40198;SDS011;25906;43.536;26.068;2022-09-27T07:41:04;7.38;;;5.10;;
40198;SDS011;25906;43.536;26.068;2022-09-27T07:43:50;9.05;;;6.40;;
40198;SDS011;25906;43.536;26.068;2022-09-27T07:46:35;7.88;;;5.95;;
40198;SDS011;25906;43.536;26.068;2022-09-27T07:49:21;9.38;;;6.05;;
40198;SDS011;25906;43.536;26.068;2022-09-27T07:52:06;7.88;;;5.97;;
40198;SDS011;25906;43.536;26.068;2022-09-27T07:54:52;7.95;;;6.30;;
40198;SDS011;25906;43.536;26.068;2022-09-27T07:57:37;8.77;;;5.75;;
40198;SDS011;25906;43.536;26.068;2022-09-27T08:00:23;9.48;;;6.40;;
40198;SDS011;25906;43.536;26.068;2022-09-27T08:03:16;7.43;;;5.70;;
40198;SDS011;25906;43.536;26.068;2022-09-27T08:06:02;6.32;;;4.55;;
40198;SDS011;25906;43.536;26.068;2022-09-27T08:08:48;6.55;;;5.20;;
40198;SDS011;25906;43.536;26.068;2022-09-27T08:11:33;8.00;;;5.43;;
40198;SDS011;25906;43.536;26.068;2022-09-27T08:14:19;6.45;;;4.90;;
40198;SDS011;25906;43.536;26.068;2022-09-27T08:17:10;9.23;;;5.38;;
40198;SDS011;25906;43.536;26.068;2022-09-27T08:19:55;7.75;;;5.45;;
40198;SDS011;25906;43.536;26.068;2022-09-27T08:22:41;8.80;;;5.85;;
40198;SDS011;25906;43.536;26.068;2022-09-27T08:28:19;10.23;;;5.15;;
40198;SDS011;25906;43.536;26.068;2022-09-27T08:31:06;7.60;;;5.10;;
40198;SDS011;25906;43.536;26.068;2022-09-27T08:33:52;12.65;;;5.20;;
40198;SDS011;25906;43.536;26.068;2022-09-27T08:36:37;9.05;;;5.55;;
40198;SDS011;25906;43.536;26.068;2022-09-27T08:39:23;7.32;;;5.57;;
40198;SDS011;25906;43.536;26.068;2022-09-27T08:45:12;9.57;;;5.43;;
40198;SDS011;25906;43.536;26.068;2022-09-27T08:48:02;7.10;;;5.35;;
40198;SDS011;25906;43.536;26.068;2022-09-27T08:50:50;7.43;;;5.28;;
40198;SDS011;25906;43.536;26.068;2022-09-27T08:53:37;6.68;;;5.28;;
40198;SDS011;25906;43.536;26.068;2022-09-27T08:56:27;8.70;;;5.72;;
40198;SDS011;25906;43.536;26.068;2022-09-27T08:59:13;7.85;;;5.95;;
40198;SDS011;25906;43.536;26.068;2022-09-27T09:02:10;6.75;;;5.57;;
40198;SDS011;25906;43.536;26.068;2022-09-27T09:10:50;6.25;;;4.78;;
40198;SDS011;25906;43.536;26.068;2022-09-27T09:14:17;6.50;;;5.15;;
40198;SDS011;25906;43.536;26.068;2022-09-27T09:30:10;6.45;;;5.10;;
40198;SDS011;25906;43.536;26.068;2022-09-27T09:35:35;13.70;;;4.85;;
40198;SDS011;25906;43.536;26.068;2022-09-27T09:41:53;9.20;;;5.75;;
40198;SDS011;25906;43.536;26.068;2022-09-27T09:45:34;6.75;;;5.25;;
40198;SDS011;25906;43.536;26.068;2022-09-27T09:51:25;4.97;;;4.40;;
40198;SDS011;25906;43.536;26.068;2022-09-27T09:54:45;6.05;;;4.40;;
40198;SDS011;25906;43.536;26.068;2022-09-27T09:57:42;5.40;;;4.47;;
40198;SDS011;25906;43.536;26.068;2022-09-27T10:00:50;6.22;;;4.50;;
40198;SDS011;25906;43.536;26.068;2022-09-27T10:03:38;5.20;;;4.13;;
40198;SDS011;25906;43.536;26.068;2022-09-27T10:06:24;4.70;;;3.90;;
40198;SDS011;25906;43.536;26.068;2022-09-27T10:09:13;7.78;;;3.90;;
40198;SDS011;25906;43.536;26.068;2022-09-27T10:12:00;5.00;;;3.60;;
40198;SDS011;25906;43.536;26.068;2022-09-27T10:14:46;3.45;;;3.00;;
40198;SDS011;25906;43.536;26.068;2022-09-27T10:17:35;5.15;;;3.22;;
40198;SDS011;25906;43.536;26.068;2022-09-27T10:20:45;4.43;;;3.47;;
40198;SDS011;25906;43.536;26.068;2022-09-27T10:23:34;4.18;;;3.60;;
40198;SDS011;25906;43.536;26.068;2022-09-27T10:26:21;2.67;;;2.30;;
40198;SDS011;25906;43.536;26.068;2022-09-27T10:32:04;2.60;;;2.17;;
40198;SDS011;25906;43.536;26.068;2022-09-27T10:35:19;4.72;;;2.17;;
40198;SDS011;25906;43.536;26.068;2022-09-27T10:41:15;2.67;;;2.17;;
40198;SDS011;25906;43.536;26.068;2022-09-27T10:44:26;4.47;;;2.40;;
40198;SDS011;25906;43.536;26.068;2022-09-27T10:47:19;3.05;;;2.40;;
40198;SDS011;25906;43.536;26.068;2022-09-27T10:50:10;2.20;;;2.00;;
40198;SDS011;25906;43.536;26.068;2022-09-27T10:53:12;2.75;;;2.35;;
40198;SDS011;25906;43.536;26.068;2022-09-27T10:56:03;2.28;;;2.08;;
40198;SDS011;25906;43.536;26.068;2022-09-27T11:01:44;4.28;;;2.35;;
40198;SDS011;25906;43.536;26.068;2022-09-27T11:04:33;2.67;;;2.47;;
40198;SDS011;25906;43.536;26.068;2022-09-27T11:07:20;4.50;;;2.75;;
40198;SDS011;25906;43.536;26.068;2022-09-27T11:10:20;3.70;;;2.47;;
40198;SDS011;25906;43.536;26.068;2022-09-27T11:31:30;5.25;;;2.47;;
40198;SDS011;25906;43.536;26.068;2022-09-27T11:37:54;6.15;;;2.50;;
40198;SDS011;25906;43.536;26.068;2022-09-27T11:40:51;2.28;;;2.08;;
40198;SDS011;25906;43.536;26.068;2022-09-27T11:58:59;3.75;;;2.45;;
40198;SDS011;25906;43.536;26.068;2022-09-27T12:11:44;2.80;;;2.30;;
40198;SDS011;25906;43.536;26.068;2022-09-27T12:14:42;2.50;;;2.30;;
40198;SDS011;25906;43.536;26.068;2022-09-27T12:17:33;2.92;;;1.98;;
40198;SDS011;25906;43.536;26.068;2022-09-27T12:26:33;3.78;;;2.38;;
40198;SDS011;25906;43.536;26.068;2022-09-27T12:32:26;3.65;;;2.20;;
40198;SDS011;25906;43.536;26.068;2022-09-27T12:35:18;2.45;;;2.25;;
40198;SDS011;25906;43.536;26.068;2022-09-27T12:38:11;4.10;;;2.10;;
40198;SDS011;25906;43.536;26.068;2022-09-27T12:40:59;2.85;;;2.13;;
40198;SDS011;25906;43.536;26.068;2022-09-27T12:43:46;2.35;;;2.15;;
40198;SDS011;25906;43.536;26.068;2022-09-27T12:46:37;2.40;;;2.20;;
40198;SDS011;25906;43.536;26.068;2022-09-27T12:50:02;4.82;;;2.58;;
40198;SDS011;25906;43.536;26.068;2022-09-27T12:52:44;2.95;;;1.98;;
40198;SDS011;25906;43.536;26.068;2022-09-27T13:14:23;2.97;;;2.00;;
40198;SDS011;25906;43.536;26.068;2022-09-27T13:34:42;3.90;;;2.10;;
40198;SDS011;25906;43.536;26.068;2022-09-27T13:40:35;2.13;;;1.92;;
40198;SDS011;25906;43.536;26.068;2022-09-27T13:43:36;4.70;;;1.80;;
40198;SDS011;25906;43.536;26.068;2022-09-27T13:46:25;2.17;;;1.80;;
40198;SDS011;25906;43.536;26.068;2022-09-27T13:49:14;2.17;;;1.90;;
40198;SDS011;25906;43.536;26.068;2022-09-27T14:01:32;3.88;;;1.58;;
40198;SDS011;25906;43.536;26.068;2022-09-27T14:04:31;2.00;;;1.80;;
40198;SDS011;25906;43.536;26.068;2022-09-27T14:07:25;2.65;;;1.75;;
40198;SDS011;25906;43.536;26.068;2022-09-27T14:10:19;1.88;;;1.77;;
40198;SDS011;25906;43.536;26.068;2022-09-27T14:13:07;1.50;;;1.40;;
40198;SDS011;25906;43.536;26.068;2022-09-27T14:18:53;2.20;;;2.00;;
40198;SDS011;25906;43.536;26.068;2022-09-27T14:21:43;1.85;;;1.67;;
40198;SDS011;25906;43.536;26.068;2022-09-27T14:27:25;1.95;;;1.70;;
40198;SDS011;25906;43.536;26.068;2022-09-27T14:30:15;2.15;;;1.77;;
40198;SDS011;25906;43.536;26.068;2022-09-27T14:33:24;3.40;;;2.35;;
40198;SDS011;25906;43.536;26.068;2022-09-27T14:39:29;2.22;;;2.00;;
40198;SDS011;25906;43.536;26.068;2022-09-27T14:42:20;2.80;;;2.40;;
40198;SDS011;25906;43.536;26.068;2022-09-27T14:45:29;2.80;;;1.92;;
40198;SDS011;25906;43.536;26.068;2022-09-27T14:51:20;2.00;;;1.70;;
40198;SDS011;25906;43.536;26.068;2022-09-27T14:54:19;6.78;;;1.70;;
40198;SDS011;25906;43.536;26.068;2022-09-27T14:57:07;2.17;;;1.98;;
40198;SDS011;25906;43.536;26.068;2022-09-27T14:59:52;2.28;;;2.08;;
40198;SDS011;25906;43.536;26.068;2022-09-27T15:02:39;3.00;;;2.08;;
40198;SDS011;25906;43.536;26.068;2022-09-27T15:05:26;2.15;;;1.95;;
40198;SDS011;25906;43.536;26.068;2022-09-27T15:08:14;2.47;;;2.00;;
40198;SDS011;25906;43.536;26.068;2022-09-27T15:11:02;4.88;;;3.03;;
40198;SDS011;25906;43.536;26.068;2022-09-27T15:13:54;6.20;;;3.53;;
40198;SDS011;25906;43.536;26.068;2022-09-27T15:16:41;4.88;;;2.88;;
40198;SDS011;25906;43.536;26.068;2022-09-27T15:19:30;4.22;;;3.13;;
40198;SDS011;25906;43.536;26.068;2022-09-27T15:30:56;4.15;;;1.90;;
40198;SDS011;25906;43.536;26.068;2022-09-27T15:33:52;2.08;;;1.88;;
40198;SDS011;25906;43.536;26.068;2022-09-27T15:36:58;2.60;;;2.40;;
40198;SDS011;25906;43.536;26.068;2022-09-27T15:39:47;2.28;;;2.08;;
40198;SDS011;25906;43.536;26.068;2022-09-27T15:42:41;3.85;;;1.70;;
40198;SDS011;25906;43.536;26.068;2022-09-27T15:45:41;3.15;;;1.92;;
40198;SDS011;25906;43.536;26.068;2022-09-27T15:48:34;2.03;;;1.83;;
40198;SDS011;25906;43.536;26.068;2022-09-27T15:54:37;2.30;;;2.10;;
40198;SDS011;25906;43.536;26.068;2022-09-27T15:57:22;2.33;;;2.13;;
40198;SDS011;25906;43.536;26.068;2022-09-27T16:00:11;3.08;;;2.00;;
40198;SDS011;25906;43.536;26.068;2022-09-27T16:02:46;3.28;;;2.17;;
40198;SDS011;25906;43.536;26.068;2022-09-27T16:05:39;2.80;;;2.10;;
40198;SDS011;25906;43.536;26.068;2022-09-27T16:08:25;2.33;;;2.13;;
40198;SDS011;25906;43.536;26.068;2022-09-27T16:11:12;3.40;;;2.30;;
40198;SDS011;25906;43.536;26.068;2022-09-27T16:13:59;2.30;;;1.90;;
40198;SDS011;25906;43.536;26.068;2022-09-27T16:16:45;1.85;;;1.65;;
40198;SDS011;25906;43.536;26.068;2022-09-27T16:19:40;2.70;;;2.22;;
40198;SDS011;25906;43.536;26.068;2022-09-27T16:22:25;2.67;;;2.10;;
40198;SDS011;25906;43.536;26.068;2022-09-27T16:25:11;3.28;;;2.13;;
40198;SDS011;25906;43.536;26.068;2022-09-27T16:27:57;2.67;;;2.10;;
40198;SDS011;25906;43.536;26.068;2022-09-27T16:30:44;2.17;;;1.98;;
40198;SDS011;25906;43.536;26.068;2022-09-27T16:33:30;2.47;;;2.20;;
40198;SDS011;25906;43.536;26.068;2022-09-27T16:36:16;4.15;;;2.25;;
40198;SDS011;25906;43.536;26.068;2022-09-27T16:39:10;3.20;;;2.53;;
40198;SDS011;25906;43.536;26.068;2022-09-27T16:41:56;4.28;;;2.30;;
40198;SDS011;25906;43.536;26.068;2022-09-27T16:44:43;3.33;;;2.67;;
40198;SDS011;25906;43.536;26.068;2022-09-27T16:47:29;7.25;;;2.60;;
40198;SDS011;25906;43.536;26.068;2022-09-27T16:50:15;3.13;;;2.72;;
40198;SDS011;25906;43.536;26.068;2022-09-27T16:53:18;7.53;;;4.40;;
40198;SDS011;25906;43.536;26.068;2022-09-27T16:56:04;5.38;;;3.40;;
40198;SDS011;25906;43.536;26.068;2022-09-27T16:58:49;5.78;;;3.53;;
40198;SDS011;25906;43.536;26.068;2022-09-27T17:01:35;6.13;;;3.30;;
40198;SDS011;25906;43.536;26.068;2022-09-27T17:04:20;4.30;;;2.50;;
40198;SDS011;25906;43.536;26.068;2022-09-27T17:07:12;4.57;;;2.50;;
40198;SDS011;25906;43.536;26.068;2022-09-27T17:09:57;3.95;;;3.20;;
40198;SDS011;25906;43.536;26.068;2022-09-27T17:12:43;7.20;;;3.00;;
40198;SDS011;25906;43.536;26.068;2022-09-27T17:15:28;3.70;;;3.05;;
40198;SDS011;25906;43.536;26.068;2022-09-27T17:18:14;8.80;;;3.28;;
40198;SDS011;25906;43.536;26.068;2022-09-27T17:21:00;5.10;;;3.22;;
40198;SDS011;25906;43.536;26.068;2022-09-27T17:23:47;5.43;;;3.08;;
40198;SDS011;25906;43.536;26.068;2022-09-27T17:26:33;7.50;;;3.58;;
40198;SDS011;25906;43.536;26.068;2022-09-27T17:29:18;5.10;;;3.70;;
40198;SDS011;25906;43.536;26.068;2022-09-27T17:32:04;3.47;;;3.10;;
40198;SDS011;25906;43.536;26.068;2022-09-27T17:34:52;3.47;;;3.13;;
40198;SDS011;25906;43.536;26.068;2022-09-27T17:37:38;4.93;;;3.17;;
40198;SDS011;25906;43.536;26.068;2022-09-27T17:40:23;5.63;;;3.30;;
40198;SDS011;25906;43.536;26.068;2022-09-27T17:43:09;3.75;;;2.50;;
40198;SDS011;25906;43.536;26.068;2022-09-27T17:45:54;4.68;;;2.83;;
40198;SDS011;25906;43.536;26.068;2022-09-27T17:48:39;2.88;;;2.58;;
40198;SDS011;25906;43.536;26.068;2022-09-27T17:51:47;2.83;;;2.58;;
40198;SDS011;25906;43.536;26.068;2022-09-27T17:54:34;2.70;;;2.47;;
40198;SDS011;25906;43.536;26.068;2022-09-27T17:57:20;4.25;;;3.00;;
40198;SDS011;25906;43.536;26.068;2022-09-27T18:02:52;7.50;;;3.10;;
40198;SDS011;25906;43.536;26.068;2022-09-27T18:05:37;3.97;;;2.78;;
40198;SDS011;25906;43.536;26.068;2022-09-27T18:08:24;4.57;;;2.92;;
40198;SDS011;25906;43.536;26.068;2022-09-27T18:11:14;4.15;;;3.05;;
40198;SDS011;25906;43.536;26.068;2022-09-27T18:14:01;4.75;;;3.50;;
40198;SDS011;25906;43.536;26.068;2022-09-27T18:16:47;4.50;;;3.40;;
40198;SDS011;25906;43.536;26.068;2022-09-27T18:19:32;4.28;;;3.33;;
40198;SDS011;25906;43.536;26.068;2022-09-27T18:22:18;4.65;;;3.45;;
40198;SDS011;25906;43.536;26.068;2022-09-27T18:25:04;4.15;;;3.25;;
40198;SDS011;25906;43.536;26.068;2022-09-27T18:27:50;5.43;;;3.42;;
40198;SDS011;25906;43.536;26.068;2022-09-27T18:30:36;4.38;;;3.10;;
40198;SDS011;25906;43.536;26.068;2022-09-27T18:33:22;4.80;;;3.25;;
40198;SDS011;25906;43.536;26.068;2022-09-27T18:36:20;3.78;;;2.97;;
40198;SDS011;25906;43.536;26.068;2022-09-27T18:39:11;3.70;;;2.80;;
40198;SDS011;25906;43.536;26.068;2022-09-27T18:41:59;4.35;;;2.95;;
40198;SDS011;25906;43.536;26.068;2022-09-27T18:44:45;2.78;;;2.28;;
40198;SDS011;25906;43.536;26.068;2022-09-27T18:47:30;4.53;;;2.88;;
40198;SDS011;25906;43.536;26.068;2022-09-27T18:50:16;4.05;;;3.25;;
40198;SDS011;25906;43.536;26.068;2022-09-27T18:53:01;4.55;;;3.53;;
40198;SDS011;25906;43.536;26.068;2022-09-27T18:55:47;5.07;;;3.35;;
40198;SDS011;25906;43.536;26.068;2022-09-27T18:58:32;5.30;;;3.25;;
40198;SDS011;25906;43.536;26.068;2022-09-27T19:01:19;4.13;;;3.15;;
40198;SDS011;25906;43.536;26.068;2022-09-27T19:04:09;5.60;;;2.80;;
40198;SDS011;25906;43.536;26.068;2022-09-27T19:06:56;4.35;;;2.47;;
40198;SDS011;25906;43.536;26.068;2022-09-27T19:09:41;2.22;;;1.70;;
40198;SDS011;25906;43.536;26.068;2022-09-27T19:12:26;3.33;;;2.00;;
40198;SDS011;25906;43.536;26.068;2022-09-27T19:15:12;3.17;;;1.83;;
40198;SDS011;25906;43.536;26.068;2022-09-27T19:17:57;3.08;;;1.98;;
40198;SDS011;25906;43.536;26.068;2022-09-27T19:20:43;4.63;;;1.90;;
40198;SDS011;25906;43.536;26.068;2022-09-27T19:23:28;5.68;;;1.73;;
40198;SDS011;25906;43.536;26.068;2022-09-27T19:26:15;4.80;;;2.03;;
40198;SDS011;25906;43.536;26.068;2022-09-27T19:29:03;3.55;;;1.60;;
40198;SDS011;25906;43.536;26.068;2022-09-27T19:31:50;3.85;;;1.88;;
40198;SDS011;25906;43.536;26.068;2022-09-27T19:34:35;2.45;;;1.77;;
40198;SDS011;25906;43.536;26.068;2022-09-27T19:37:22;2.38;;;1.60;;
40198;SDS011;25906;43.536;26.068;2022-09-27T19:40:07;3.33;;;1.58;;
40198;SDS011;25906;43.536;26.068;2022-09-27T19:42:53;2.33;;;1.48;;
40198;SDS011;25906;43.536;26.068;2022-09-27T19:45:38;3.80;;;1.60;;
40198;SDS011;25906;43.536;26.068;2022-09-27T19:48:24;5.47;;;1.70;;
40198;SDS011;25906;43.536;26.068;2022-09-27T19:51:13;2.60;;;1.35;;
40198;SDS011;25906;43.536;26.068;2022-09-27T19:54:00;2.15;;;1.67;;
40198;SDS011;25906;43.536;26.068;2022-09-27T19:56:46;3.55;;;1.55;;
40198;SDS011;25906;43.536;26.068;2022-09-27T19:59:33;1.95;;;1.60;;
40198;SDS011;25906;43.536;26.068;2022-09-27T20:02:18;2.33;;;1.70;;
40198;SDS011;25906;43.536;26.068;2022-09-27T20:05:04;3.03;;;1.90;;
40198;SDS011;25906;43.536;26.068;2022-09-27T20:10:37;4.50;;;2.00;;
40198;SDS011;25906;43.536;26.068;2022-09-27T20:13:23;2.35;;;1.98;;
40198;SDS011;25906;43.536;26.068;2022-09-27T20:16:11;1.92;;;1.60;;
40198;SDS011;25906;43.536;26.068;2022-09-27T20:18:59;2.47;;;1.88;;
40198;SDS011;25906;43.536;26.068;2022-09-27T20:21:45;2.25;;;1.70;;
40198;SDS011;25906;43.536;26.068;2022-09-27T20:24:30;2.15;;;1.73;;
40198;SDS011;25906;43.536;26.068;2022-09-27T20:27:15;2.55;;;2.00;;
40198;SDS011;25906;43.536;26.068;2022-09-27T20:30:02;5.10;;;2.30;;
40198;SDS011;25906;43.536;26.068;2022-09-27T20:32:47;3.63;;;2.22;;
40198;SDS011;25906;43.536;26.068;2022-09-27T20:35:56;3.65;;;2.28;;
40198;SDS011;25906;43.536;26.068;2022-09-27T20:38:43;2.40;;;1.95;;
40198;SDS011;25906;43.536;26.068;2022-09-27T20:41:31;2.90;;;1.70;;